METAR Data
IDs: Format: Raw Decoded Include TAF

Data at: 1853 UTC 14 Dec 2018

KSNK 141835Z AUTO 34022KT 10SM CLR 08/M08 A3026 RMK AO2 T00771079
KSNK 141815Z AUTO 34021G26KT 10SM CLR 07/M08 A3027 RMK AO2 T00741082
KSNK 141755Z AUTO 34022G28KT 10SM CLR 07/M08 A3027 RMK AO2 T00701082
KSNK 141735Z AUTO 33020G26KT 10SM CLR 06/M08 A3028 RMK AO2 T00631085
KSNK 141715Z AUTO 33022G26KT 10SM CLR 06/M08 A3028 RMK AO2 T00581085
KSNK 141655Z AUTO 34022KT 10SM CLR 05/M09 A3028 RMK AO2 T00521089
KSNK 141635Z AUTO 34022G25KT 10SM CLR 05/M09 A3028 RMK AO2 T00451090
KSNK 141615Z AUTO 34018G24KT 10SM CLR 04/M09 A3028 RMK AO2 T00381091
KSNK 141555Z AUTO 34019G27KT 10SM CLR 03/M09 A3028 RMK AO2 T00331092
KSNK 141535Z AUTO 34018G24KT 10SM CLR 03/M09 A3026 RMK AO2 T00261090
KSNK 141515Z AUTO 32018G23KT 10SM CLR 02/M09 A3026 RMK AO2 T00221090
KSNK 141455Z AUTO 33017G22KT 10SM CLR 02/M09 A3025 RMK AO2 T00181092
KSNK 141435Z AUTO 31015G22KT 10SM CLR 01/M09 A3024 RMK AO2 T00131090
KSNK 141415Z AUTO 32013G21KT 10SM CLR 01/M09 A3024 RMK AO2 T00101090
KSNK 141355Z AUTO 32015KT 10SM CLR 01/M09 A3023 RMK AO2 T00101090
KSNK 141335Z AUTO 33015G21KT 10SM CLR 01/M09 A3021 RMK AO2 T00111089
KSNK 141315Z AUTO 33017G25KT 10SM CLR 01/M09 A3020 RMK AO2 T00111088
KSNK 141255Z AUTO 33017G21KT 10SM CLR 01/M09 A3019 RMK AO2 T00121086
KSNK 141235Z AUTO 34018G24KT 10SM CLR 01/M09 A3017 RMK AO2 T00131086
KSNK 141215Z AUTO 34018G24KT 10SM CLR 02/M08 A3016 RMK AO2 LTG DSNT E T00151085
KSNK 141155Z AUTO 34019G25KT 10SM CLR 02/M08 A3015 RMK AO2 T00151084
KSNK 141135Z AUTO 34020G26KT 10SM CLR 01/M08 A3015 RMK AO2 T00141081
KSNK 141115Z AUTO 34020G25KT 10SM CLR 02/M08 A3015 RMK AO2 T00151081
KSNK 141055Z AUTO 33020G26KT 10SM CLR 02/M08 A3015 RMK AO2 T00161080
KSNK 141035Z AUTO 33019G26KT 10SM CLR 02/M08 A3015 RMK AO2 T00161077
KSNK 141015Z AUTO 33018G25KT 10SM CLR 02/M07 A3014 RMK AO2 T00171074
KSNK 140955Z AUTO 34017G23KT 10SM CLR 02/M07 A3015 RMK AO2 T00191072
KSNK 140935Z AUTO 33018KT 10SM CLR 02/M07 A3015 RMK AO2 T00201071
KSNK 140915Z AUTO 33018G25KT 10SM CLR 02/M07 A3014 RMK AO2 T00231071
KSNK 140855Z AUTO 33021G29KT 10SM CLR 02/M07 A3014 RMK AO2 T00241071
KSNK 140835Z AUTO 33020G27KT 10SM CLR 03/M07 A3013 RMK AO2 T00251070
KSNK 140815Z AUTO 33019G22KT 10SM CLR 03/M07 A3013 RMK AO2 T00271071
KSNK 140755Z AUTO 33019G28KT 10SM CLR 03/M07 A3012 RMK AO2 T00301073
KSNK 140735Z AUTO 33018G26KT 10SM CLR 03/M07 A3012 RMK AO2 T00301073
KSNK 140715Z AUTO 33019G25KT 10SM CLR 03/M07 A3012 RMK AO2 T00301071
KSNK 140655Z AUTO 33017G23KT 10SM CLR 03/M07 A3012 RMK AO2 T00311071
KSNK 140635Z AUTO 33018G25KT 10SM CLR 03/M07 A3012 RMK AO2 T00321067
KSNK 140615Z AUTO 33016G23KT 10SM CLR 03/M06 A3012 RMK AO2 T00321062
KSNK 140555Z AUTO 33018G23KT 10SM CLR 03/M06 A3012 RMK AO2 T00331060
KSNK 140535Z AUTO 33017G26KT 10SM CLR 04/M06 A3011 RMK AO2 T00361060
KSNK 140515Z AUTO 33018G25KT 10SM CLR 04/M06 A3011 RMK AO2 T00391058
KSNK 140455Z AUTO 34020G26KT 10SM CLR 04/M06 A3010 RMK AO2 T00421057
KSNK 140435Z AUTO 34020G29KT 10SM CLR 05/M05 A3010 RMK AO2 T00451055
KSNK 140415Z AUTO 34023G34KT 10SM CLR 05/M05 A3009 RMK AO2 T00481054
KSNK 140355Z AUTO 34018G28KT 10SM CLR 05/M05 A3008 RMK AO2 T00501052
KSNK 140335Z AUTO 34022G33KT 10SM CLR 05/M05 A3007 RMK AO2 T00531052
KSNK 140315Z AUTO 34026G32KT 10SM SCT120 06/M05 A3007 RMK AO2 T00551052
KSNK 140255Z AUTO 33025G31KT 10SM SCT120 06/M05 A3007 RMK AO2 T00561050
KSNK 140235Z AUTO 33021G29KT 10SM CLR 06/M05 A3007 RMK AO2 T00581048
KSNK 140215Z AUTO 33019G26KT 10SM CLR 06/M05 A3006 RMK AO2 T00621047
KSNK 140155Z AUTO 33020G27KT 10SM CLR 07/M05 A3005 RMK AO2 T00661046
KSNK 140135Z AUTO 33018G29KT 10SM SCT090 07/M05 A3004 RMK AO2 T00701047
KSNK 140115Z AUTO 33020G28KT 10SM SCT060 OVC080 07/M05 A3003 RMK AO2 T00731046
KSNK 140055Z AUTO 33024G45KT 10SM SCT031 SCT044 OVC060 07/M03 A3002 RMK AO2 LTG DSNT E T00701032
KSNK 140035Z AUTO 33030G46KT 7SM DZ SCT026 BKN030 OVC050 06/M02 A3002 RMK AO2 T00581017
KSNK 140015Z AUTO 35033G45KT 10SM -RA SCT026 BKN038 OVC050 06/M02 A3002 RMK AO2 T00621023
KSNK 132355Z AUTO 36037G49KT 10SM -DZ SCT026 BKN037 OVC055 06/M03 A3001 RMK AO2 T00631026
KSNK 132335Z AUTO 34026G35KT 10SM SCT035 BKN047 OVC055 07/M03 A3000 RMK AO2 T00651030
KSNK 132315Z AUTO 34022G30KT 10SM SCT035 BKN055 OVC065 07/M03 A2998 RMK AO2 T00651028
KSNK 132255Z AUTO 33019G27KT 10SM BKN065 OVC080 07/M02 A2996 RMK AO2 T00661024
KSNK 132235Z AUTO 33021G27KT 10SM SCT065 OVC075 07/M02 A2995 RMK AO2 T00661021
KSNK 132215Z AUTO 33027G32KT 10SM OVC075 06/M01 A2994 RMK AO2 T00641013
KSNK 132155Z AUTO 33019G26KT 10SM SCT044 BKN070 OVC075 06/M01 A2993 RMK AO2 T00621009
KSNK 132135Z AUTO 33018G31KT 10SM SCT038 BKN045 OVC055 05/00 A2992 RMK AO2 T00541001
KSNK 132115Z AUTO 33020G33KT 10SM SCT027 BKN043 OVC055 04/01 A2991 RMK AO2 LTG DSNT E T00410009
KSNK 132055Z AUTO 32021G33KT 10SM RA SCT018 BKN033 OVC039 03/02 A2991 RMK AO2 LTG DSNT E T00290024
KSNK 132035Z AUTO 33029G36KT 7SM -RA BKN016 BKN023 OVC035 03/03 A2991 RMK AO2 LTG DSNT E T00250025
KSNK 132015Z AUTO 33027G34KT 5SM -RA OVC014 02/02 A2991 RMK AO2 T00240024
KSNK 131955Z AUTO 33027G35KT 2SM -SN OVC012 02/02 A2991 RMK AO2 LTG DSNT NE T00220022
KSNK 131935Z AUTO 33025G32KT 2 1/2SM RA OVC012 02/02 A2990 RMK AO2 LTG DSNT NE T00240022
KSNK 131915Z AUTO 33028G33KT 3SM -RA OVC014 03/03 A2989 RMK AO2 LTG DSNT E T00270025
KSNK 131855Z AUTO 33025G34KT 2 1/2SM RA OVC016 03/03 A2989 RMK AO2 VIS 1 3/4V4 LTG DSNT NE T00310026
KSNK 131835Z AUTO 34022G41KT 4SM RA OVC018 04/03 A2989 RMK AO2 T00350026
KSNK 131815Z AUTO 35032G41KT 4SM -RA BKN020 OVC026 04/02 A2988 RMK AO2 LTG DSNT NE T00370024
KSNK 131755Z AUTO 35026G38KT 7SM -RA OVC025 04/03 A2988 RMK AO2 T00380025
KSNK 131735Z AUTO 36030G40KT 5SM DZ BKN025 OVC030 04/03 A2988 RMK AO2 T00380025
KSNK 131715Z AUTO 35031G41KT 5SM -RA BKN025 OVC031 04/02 A2986 RMK AO2 T00400024
KSNK 131655Z AUTO 36029G42KT 5SM -RA BKN025 OVC031 04/02 A2986 RMK AO2 LTG DSNT NE AND E T00410022
KSNK 131635Z AUTO 36028G42KT 7SM -RA BKN027 BKN031 OVC037 04/02 A2985 RMK AO2 T00430020
KSNK 131615Z AUTO 36026G39KT 10SM -RA BKN027 OVC035 04/02 A2984 RMK AO2 T00420020
KSNK 131555Z AUTO 36032G40KT 7SM -RA BKN023 BKN028 OVC034 04/02 A2983 RMK AO2 T00400021
KSNK 131535Z AUTO 36031G42KT 10SM -RA BKN021 OVC031 04/02 A2983 RMK AO2 T00390020
KSNK 131515Z AUTO 01023G39KT 7SM -RA SCT023 OVC029 04/02 A2981 RMK AO2 LTG DSNT E T00410020
KSNK 131455Z AUTO 01022G35KT 7SM -RA OVC027 04/02 A2980 RMK AO2 T00420024
KSNK 131435Z AUTO 36022G32KT 5SM RA SCT021 BKN027 OVC060 05/03 A2979 RMK AO2 T00470030
KSNK 131415Z AUTO 36024G33KT 5SM -RA OVC021 05/04 A2976 RMK AO2 T00510039
KSNK 131355Z AUTO 01026G31KT 5SM -RA OVC021 06/04 A2976 RMK AO2 T00560038
KSNK 131335Z AUTO 36027G35KT 10SM -RA BKN023 OVC039 07/03 A2976 RMK AO2 T00660031
KSNK 131315Z AUTO 35027G34KT 10SM BKN025 BKN055 OVC080 07/03 A2976 RMK AO2 T00670028
KSNK 131255Z AUTO 35025G33KT 10SM SCT050 BKN080 OVC100 07/02 A2974 RMK AO2 T00690023
KSNK 131235Z AUTO 35023G31KT 10SM -RA OVC050 08/02 A2973 RMK AO2 T00790017
KSNK 131215Z AUTO 30017G23KT 10SM BKN065 OVC090 09/02 A2973 RMK AO2 T00860024
KSNK 131155Z AUTO 28013G21KT 10SM OVC090 07/05 A2970 RMK AO2 T00700053
KSNK 131135Z AUTO 27007KT 10SM OVC100 06/06 A2968 RMK AO2 T00630057
KSNK 131115Z AUTO 27006KT 10SM SCT100 06/05 A2967 RMK AO2 T00550054
KSNK 131055Z AUTO 24005KT 10SM CLR 05/05 A2967 RMK AO2 T00500050
KSNK 131035Z AUTO 23006KT 4SM BR CLR 05/05 A2968 RMK AO2 T00480048
KSNK 131015Z AUTO 23003KT 7SM CLR 06/06 A2968 RMK AO2 LTG DSNT E AND NW T00580056
KSNK 130955Z AUTO 22004KT 10SM CLR 07/06 A2968 RMK AO2 T00660064
KSNK 130935Z AUTO 18007KT 10SM CLR 07/07 A2968 RMK AO2 T00710068
KSNK 130915Z AUTO 17006KT 10SM CLR 07/07 A2968 RMK AO2 LTG DSNT E T00710068
KSNK 130855Z AUTO 18007KT 10SM CLR 07/07 A2968 RMK AO2 LTG DSNT E T00710069
KSNK 130835Z AUTO 18006KT 10SM CLR 07/07 A2968 RMK AO2 T00730070
KSNK 130815Z AUTO 18008KT 10SM CLR 07/07 A2969 RMK AO2 LTG DSNT E T00720070
KSNK 130755Z AUTO 18007KT 10SM CLR 07/07 A2970 RMK AO2 LTG DSNT E T00710068
KSNK 130735Z AUTO 19007KT 10SM CLR 08/07 A2970 RMK AO2 T00770072
KSNK 130715Z AUTO 19006KT 10SM CLR 08/08 A2971 RMK AO2 T00810075
KSNK 130655Z AUTO 19008KT 10SM CLR 09/08 A2972 RMK AO2 T00850076